Coolah Airport


Codes: YCAH/CLH
Name: Coolah Airport
City:
Country: Australia
Elevation: 504 ft.

Photos at Coolah Airport


   Photos courtesy of SpottingLog. You can add your own sightings and photos by signing up for a free trial today.



No photos found.

Weather at Coolah Airport


Time (UTC)DescriptionTempratureWindCloud coverageVisibilityPressureHumidity
18-Apr-2024 00:00Light Rain14°C4 mph, W14%10000m1020hPa79%
18-Apr-2024 03:00Light Rain19°C7 mph, W20%10000m1017hPa59%
18-Apr-2024 06:00Few Clouds21°C11 mph, W14%10000m1015hPa42%
18-Apr-2024 09:00Clear Sky14°C4 mph, SW0%10000m1017hPa55%
18-Apr-2024 12:00Clear Sky11°C4 mph, SW0%10000m1018hPa63%
18-Apr-2024 15:00Clear Sky9°C2 mph, S0%10000m1018hPa69%
18-Apr-2024 18:00Clear Sky8°C2 mph, SE2%10000m1017hPa74%
18-Apr-2024 21:00Few Clouds8°C2 mph, SE19%10000m1018hPa73%
19-Apr-2024 00:00Scattered Clouds16°C7 mph, SW25%10000m1017hPa43%
19-Apr-2024 03:00Broken Clouds18°C7 mph, SW71%10000m1016hPa36%
19-Apr-2024 06:00Overcast Clouds16°C4 mph, S85%10000m1016hPa43%
19-Apr-2024 09:00Light Rain13°C4 mph, SE100%10000m1019hPa62%
19-Apr-2024 12:00Overcast Clouds11°C7 mph, SE100%10000m1020hPa76%
19-Apr-2024 15:00Overcast Clouds12°C11 mph, SE100%10000m1020hPa83%
19-Apr-2024 18:00Light Rain11°C11 mph, SE100%10000m1020hPa92%
19-Apr-2024 21:00Light Rain11°C16 mph, SE100%10000m1021hPa90%
20-Apr-2024 00:00Overcast Clouds14°C18 mph, SE100%10000m1021hPa80%
20-Apr-2024 03:00Overcast Clouds16°C16 mph, SE99%10000m1020hPa73%
20-Apr-2024 06:00Light Rain16°C16 mph, SE82%10000m1021hPa74%
20-Apr-2024 09:00Overcast Clouds13°C16 mph, SE100%10000m1023hPa83%
20-Apr-2024 12:00Overcast Clouds13°C16 mph, SE97%10000m1024hPa87%
20-Apr-2024 15:00Broken Clouds13°C13 mph, SE80%10000m1024hPa83%
20-Apr-2024 18:00Overcast Clouds12°C11 mph, SE86%10000m1023hPa85%
20-Apr-2024 21:00Overcast Clouds13°C11 mph, SE93%10000m1024hPa87%
21-Apr-2024 00:00Overcast Clouds15°C13 mph, SE94%10000m1024hPa77%
21-Apr-2024 03:00Overcast Clouds16°C13 mph, SE85%10000m1023hPa73%
21-Apr-2024 06:00Broken Clouds18°C13 mph, SE66%10000m1022hPa63%
21-Apr-2024 09:00Clear Sky14°C13 mph, SE0%10000m1024hPa81%
21-Apr-2024 12:00Scattered Clouds14°C13 mph, SE25%10000m1024hPa84%
21-Apr-2024 15:00Overcast Clouds13°C11 mph, SE100%10000m1024hPa89%
21-Apr-2024 18:00Overcast Clouds14°C16 mph, SE97%10000m1023hPa81%
21-Apr-2024 21:00Broken Clouds13°C13 mph, SE54%10000m1023hPa85%
22-Apr-2024 00:00Scattered Clouds18°C16 mph, SE27%10000m1023hPa57%
22-Apr-2024 03:00Few Clouds20°C16 mph, SE12%10000m1021hPa54%
22-Apr-2024 06:00Scattered Clouds17°C13 mph, SE44%10000m1020hPa70%
22-Apr-2024 09:00Overcast Clouds15°C11 mph, SE96%10000m1021hPa83%
22-Apr-2024 12:00Broken Clouds13°C7 mph, SE74%10000m1022hPa91%
22-Apr-2024 15:00Few Clouds11°C4 mph, SE24%10000m1021hPa96%
22-Apr-2024 18:00Few Clouds10°C4 mph, E12%10000m1020hPa94%
22-Apr-2024 21:00Scattered Clouds11°C4 mph, SE26%10000m1021hPa86%